Time;durP1;ratioP1;P1;durP2;ratioP2;P2;SDS_P1;SDS_P2;PMS_P1;PMS_P2;Temp;Humidity;BMP_temperature;BMP_pressure;BME280_temperature;BME280_humidity;BME280_pressure;Samples;Min_cycle;Max_cycle;Signal;HPM_P1;HPM_P2
2022/03/28 00:00:15;;;;;;;14.80;13.20;;;;;;;;;;509569;28;1453;-72
2022/03/28 00:00:30;;;;;;;16.23;13.55;;;;;;;;;;511521;28;1330;-72
2022/03/28 00:00:46;;;;;;;16.27;13.52;;;;;;;;;;511542;28;1381;-71
2022/03/28 00:01:02;;;;;;;15.70;13.38;;;;;;;;;;509179;29;1451;-71
2022/03/28 00:01:18;;;;;;;16.00;13.60;;;;;;;;;;510463;28;1319;-71
2022/03/28 00:01:34;;;;;;;16.70;13.50;;;;;;;;;;510554;28;1615;-71
2022/03/28 00:01:49;;;;;;;16.85;13.75;;;;;;;;;;511528;28;1275;-71
2022/03/28 00:02:04;;;;;;;16.37;14.23;;;;;;;;;;511456;28;1429;-71
2022/03/28 00:02:20;;;;;;;16.37;14.00;;;;;;;;;;511737;28;1393;-72
2022/03/28 00:02:37;;;;;;;15.10;13.35;;;;;;;;;;511405;28;1445;-71
2022/03/28 00:02:52;;;;;;;15.85;13.38;;;;;;;;;;510163;29;1442;-72
2022/03/28 00:03:08;;;;;;;15.73;13.10;;;;;;;;;;509498;29;1315;-71
2022/03/28 00:03:23;;;;;;;14.73;12.75;;;;;;;;;;509460;28;1367;-71
2022/03/28 00:03:38;;;;;;;15.50;12.97;;;;;;;;;;512069;28;1346;-71
2022/03/28 00:03:53;;;;;;;16.50;13.43;;;;;;;;;;511943;28;1268;-71
2022/03/28 00:04:09;;;;;;;16.57;13.63;;;;;;;;;;513704;28;1179;-72
2022/03/28 00:04:24;;;;;;;16.30;13.35;;;;;;;;;;513779;28;1278;-72
2022/03/28 00:04:39;;;;;;;17.37;13.63;;;;;;;;;;514091;28;1194;-72
2022/03/28 00:04:55;;;;;;;17.00;14.20;;;;;;;;;;513265;28;1278;-71
2022/03/28 00:05:13;;;;;;;16.00;13.90;;;;;;;;;;513648;28;1490;-71
2022/03/28 00:05:28;;;;;;;16.60;13.75;;;;;;;;;;515368;28;816;-71
2022/03/28 00:05:44;;;;;;;16.92;13.77;;;;;;;;;;515663;28;895;-72
2022/03/28 00:05:59;;;;;;;15.30;13.40;;;;;;;;;;515105;28;1256;-72
2022/03/28 00:06:14;;;;;;;15.70;13.50;;;;;;;;;;515730;28;745;-71
2022/03/28 00:06:30;;;;;;;15.90;13.27;;;;;;;;;;515490;28;765;-72
2022/03/28 00:06:46;;;;;;;14.93;12.82;;;;;;;;;;513873;28;1333;-72
2022/03/28 00:07:01;;;;;;;14.73;12.85;;;;;;;;;;513797;28;770;-71
2022/03/28 00:07:16;;;;;;;16.43;12.87;;;;;;;;;;512651;28;1511;-72
2022/03/28 00:07:32;;;;;;;17.23;13.13;;;;;;;;;;511992;28;1342;-71
2022/03/28 00:07:47;;;;;;;16.25;13.27;;;;;;;;;;512792;28;1532;-71
2022/03/28 00:08:02;;;;;;;15.53;12.70;;;;;;;;;;514073;28;1310;-72
2022/03/28 00:08:18;;;;;;;15.40;12.98;;;;;;;;;;513629;28;1489;-72
2022/03/28 00:08:34;;;;;;;16.30;13.63;;;;;;;;;;514131;28;1226;-72
2022/03/28 00:08:50;;;;;;;17.23;13.82;;;;;;;;;;513153;28;1615;-71
2022/03/28 00:09:05;;;;;;;16.92;13.73;;;;;;;;;;514157;28;1465;-71
2022/03/28 00:09:21;;;;;;;16.17;13.98;;;;;;;;;;515663;28;776;-71
2022/03/28 00:09:36;;;;;;;16.53;14.00;;;;;;;;;;516185;28;994;-72
2022/03/28 00:09:51;;;;;;;16.47;13.20;;;;;;;;;;513652;28;785;-71
2022/03/28 00:10:08;;;;;;;15.73;13.02;;;;;;;;;;514012;28;1372;-72
2022/03/28 00:10:23;;;;;;;15.20;13.07;;;;;;;;;;513498;28;1376;-72
2022/03/28 00:10:39;;;;;;;14.27;12.60;;;;;;;;;;514526;28;1355;-72
2022/03/28 00:10:55;;;;;;;14.53;12.90;;;;;;;;;;511969;28;1347;-71
2022/03/28 00:11:10;;;;;;;16.92;13.40;;;;;;;;;;511682;28;1513;-71
2022/03/28 00:11:27;;;;;;;16.93;13.53;;;;;;;;;;510761;29;1425;-72
2022/03/28 00:11:42;;;;;;;15.98;13.60;;;;;;;;;;511988;29;887;-72
2022/03/28 00:11:57;;;;;;;15.17;13.40;;;;;;;;;;510554;29;1251;-72
2022/03/28 00:12:13;;;;;;;16.42;13.18;;;;;;;;;;510119;29;897;-72
2022/03/28 00:12:28;;;;;;;17.00;13.23;;;;;;;;;;510138;29;1197;-71
2022/03/28 00:12:43;;;;;;;15.60;13.27;;;;;;;;;;513714;28;1316;-71
2022/03/28 00:12:59;;;;;;;15.57;13.05;;;;;;;;;;513308;28;1375;-71
2022/03/28 00:13:14;;;;;;;15.13;12.97;;;;;;;;;;513604;28;971;-72
2022/03/28 00:13:29;;;;;;;15.65;13.20;;;;;;;;;;516525;28;964;-71
2022/03/28 00:13:46;;;;;;;15.57;13.07;;;;;;;;;;513360;28;1398;-72
2022/03/28 00:14:01;;;;;;;15.23;13.10;;;;;;;;;;515730;28;1447;-71
2022/03/28 00:14:17;;;;;;;14.98;13.30;;;;;;;;;;515654;28;1485;-71
2022/03/28 00:14:32;;;;;;;16.03;13.07;;;;;;;;;;517643;28;1495;-72
2022/03/28 00:14:47;;;;;;;16.85;13.20;;;;;;;;;;513880;28;1310;-71
2022/03/28 00:15:05;;;;;;;16.43;13.00;;;;;;;;;;514219;28;1377;-72
2022/03/28 00:15:20;;;;;;;17.40;13.07;;;;;;;;;;513938;28;1337;-72
2022/03/28 00:15:35;;;;;;;16.50;13.23;;;;;;;;;;513704;28;1313;-71
2022/03/28 00:15:51;;;;;;;16.33;13.20;;;;;;;;;;514341;28;1277;-72
2022/03/28 00:16:06;;;;;;;15.50;13.40;;;;;;;;;;511871;28;1258;-71
2022/03/28 00:16:22;;;;;;;14.80;13.10;;;;;;;;;;512515;28;1421;-72
2022/03/28 00:16:37;;;;;;;14.40;12.67;;;;;;;;;;512349;28;1581;-71
2022/03/28 00:16:55;;;;;;;14.30;12.80;;;;;;;;;;512795;28;1372;-71
2022/03/28 00:17:10;;;;;;;14.82;13.02;;;;;;;;;;512333;28;1280;-72
2022/03/28 00:17:25;;;;;;;15.63;13.13;;;;;;;;;;511356;28;1500;-72
2022/03/28 00:17:40;;;;;;;15.70;13.10;;;;;;;;;;513355;28;1336;-72
2022/03/28 00:17:56;;;;;;;15.97;13.20;;;;;;;;;;512507;28;1433;-72
2022/03/28 00:18:11;;;;;;;16.20;13.07;;;;;;;;;;511151;29;1271;-72
2022/03/28 00:18:27;;;;;;;15.63;12.82;;;;;;;;;;511152;28;1489;-72
2022/03/28 00:18:42;;;;;;;15.03;12.90;;;;;;;;;;511243;29;1315;-72
2022/03/28 00:18:57;;;;;;;14.40;12.90;;;;;;;;;;510611;28;1946;-72
2022/03/28 00:19:13;;;;;;;14.63;13.10;;;;;;;;;;513345;28;1274;-72
2022/03/28 00:19:28;;;;;;;14.77;13.20;;;;;;;;;;512802;28;1499;-71
2022/03/28 00:19:43;;;;;;;14.10;12.65;;;;;;;;;;510731;28;1368;-71
2022/03/28 00:20:00;;;;;;;13.97;12.47;;;;;;;;;;512763;28;1358;-71
2022/03/28 00:20:16;;;;;;;15.40;13.15;;;;;;;;;;513404;28;852;-71
2022/03/28 00:20:31;;;;;;;15.52;13.23;;;;;;;;;;513671;28;773;-71
2022/03/28 00:20:49;;;;;;;15.43;12.87;;;;;;;;;;511703;29;1249;-72
2022/03/28 00:21:04;;;;;;;16.13;13.23;;;;;;;;;;509669;29;1257;-72
2022/03/28 00:21:20;;;;;;;15.83;13.37;;;;;;;;;;509928;29;733;-72
2022/03/28 00:21:35;;;;;;;15.60;13.43;;;;;;;;;;510608;29;836;-71
2022/03/28 00:21:50;;;;;;;14.87;13.00;;;;;;;;;;511531;29;774;-72
2022/03/28 00:22:06;;;;;;;14.30;12.60;;;;;;;;;;511638;28;1484;-72
2022/03/28 00:22:21;;;;;;;15.48;13.07;;;;;;;;;;511824;28;1235;-71
2022/03/28 00:22:38;;;;;;;15.40;13.33;;;;;;;;;;509918;28;1298;-71
2022/03/28 00:22:53;;;;;;;14.60;12.85;;;;;;;;;;512900;28;1302;-72
2022/03/28 00:23:08;;;;;;;14.45;12.88;;;;;;;;;;512435;28;1414;-71
2022/03/28 00:23:24;;;;;;;15.97;13.30;;;;;;;;;;509910;28;1302;-71
2022/03/28 00:23:39;;;;;;;16.45;13.35;;;;;;;;;;509646;29;1521;-72
2022/03/28 00:23:55;;;;;;;14.47;12.83;;;;;;;;;;509646;29;1339;-72
2022/03/28 00:24:10;;;;;;;14.15;12.65;;;;;;;;;;509775;28;1587;-72
2022/03/28 00:24:25;;;;;;;14.43;12.93;;;;;;;;;;510300;28;1277;-72
2022/03/28 00:24:41;;;;;;;14.47;12.90;;;;;;;;;;512907;28;1437;-72
2022/03/28 00:24:56;;;;;;;15.18;12.85;;;;;;;;;;513482;28;785;-71
2022/03/28 00:25:11;;;;;;;15.20;13.10;;;;;;;;;;514265;28;1266;-71
2022/03/28 00:25:27;;;;;;;14.77;13.23;;;;;;;;;;513030;28;809;-71
2022/03/28 00:25:45;;;;;;;15.38;13.38;;;;;;;;;;513053;28;816;-72
2022/03/28 00:26:00;;;;;;;15.73;13.23;;;;;;;;;;511574;28;1455;-71
2022/03/28 00:26:15;;;;;;;15.23;13.20;;;;;;;;;;511748;28;1287;-72
2022/03/28 00:26:31;;;;;;;14.60;13.00;;;;;;;;;;512643;28;1536;-72
2022/03/28 00:26:46;;;;;;;14.30;12.75;;;;;;;;;;512802;28;1283;-72
2022/03/28 00:27:02;;;;;;;15.05;13.00;;;;;;;;;;512747;28;1370;-71
2022/03/28 00:27:18;;;;;;;15.60;13.20;;;;;;;;;;513758;28;1321;-71
2022/03/28 00:27:33;;;;;;;15.98;13.02;;;;;;;;;;514427;28;1337;-72
2022/03/28 00:27:48;;;;;;;15.60;12.70;;;;;;;;;;513553;28;1591;-72
2022/03/28 00:28:04;;;;;;;15.38;13.02;;;;;;;;;;514028;28;1305;-71
2022/03/28 00:28:19;;;;;;;15.83;13.57;;;;;;;;;;512308;28;1472;-71
2022/03/28 00:28:34;;;;;;;15.63;13.60;;;;;;;;;;510463;29;1271;-71
2022/03/28 00:28:50;;;;;;;16.30;13.63;;;;;;;;;;510243;29;1374;-71
2022/03/28 00:29:05;;;;;;;16.07;13.53;;;;;;;;;;510825;28;1310;-72
2022/03/28 00:29:21;;;;;;;14.80;13.20;;;;;;;;;;510291;28;1448;-71
2022/03/28 00:29:36;;;;;;;14.63;13.02;;;;;;;;;;512747;28;1242;-71
2022/03/28 00:29:52;;;;;;;14.35;12.80;;;;;;;;;;510284;28;1430;-71
2022/03/28 00:30:08;;;;;;;14.60;13.00;;;;;;;;;;509376;28;1245;-72
2022/03/28 00:30:25;;;;;;;14.60;13.07;;;;;;;;;;511344;28;1472;-71
2022/03/28 00:30:41;;;;;;;14.27;12.77;;;;;;;;;;513828;28;797;-71
2022/03/28 00:30:56;;;;;;;14.48;12.90;;;;;;;;;;513578;28;1204;-71
2022/03/28 00:31:11;;;;;;;15.43;13.40;;;;;;;;;;513798;28;848;-72
2022/03/28 00:31:27;;;;;;;15.43;13.25;;;;;;;;;;513686;28;927;-72
2022/03/28 00:31:42;;;;;;;14.73;12.90;;;;;;;;;;513726;28;1085;-71
2022/03/28 00:31:57;;;;;;;14.83;13.03;;;;;;;;;;511802;29;1255;-72
2022/03/28 00:32:12;;;;;;;14.27;12.77;;;;;;;;;;511511;28;1345;-71
2022/03/28 00:32:28;;;;;;;14.33;12.80;;;;;;;;;;512202;28;1394;-72
2022/03/28 00:32:43;;;;;;;14.67;13.07;;;;;;;;;;511803;28;1504;-71
2022/03/28 00:32:59;;;;;;;14.97;13.33;;;;;;;;;;512885;28;1397;-71
2022/03/28 00:33:14;;;;;;;16.13;13.65;;;;;;;;;;512651;28;1464;-71
2022/03/28 00:33:30;;;;;;;15.77;13.38;;;;;;;;;;512922;28;1322;-72
2022/03/28 00:33:45;;;;;;;15.80;13.03;;;;;;;;;;512442;28;1587;-72
2022/03/28 00:34:01;;;;;;;15.55;13.07;;;;;;;;;;515103;28;1380;-72
2022/03/28 00:34:21;;;;;;;15.87;13.00;;;;;;;;;;514563;28;1440;-71
2022/03/28 00:34:37;;;;;;;15.75;13.13;;;;;;;;;;514745;28;1206;-71
2022/03/28 00:34:53;;;;;;;14.98;13.10;;;;;;;;;;515323;28;1539;-71
2022/03/28 00:35:08;;;;;;;15.40;12.93;;;;;;;;;;513937;28;1357;-72
2022/03/28 00:35:24;;;;;;;15.52;13.00;;;;;;;;;;513588;28;1503;-71
2022/03/28 00:35:40;;;;;;;14.27;12.73;;;;;;;;;;512661;28;1257;-71
2022/03/28 00:35:55;;;;;;;14.07;12.57;;;;;;;;;;510876;28;1500;-72
2022/03/28 00:36:11;;;;;;;14.15;12.65;;;;;;;;;;511152;29;1457;-71
2022/03/28 00:36:26;;;;;;;14.67;12.90;;;;;;;;;;510469;29;1440;-72
2022/03/28 00:36:41;;;;;;;15.32;12.90;;;;;;;;;;508613;29;1358;-72
2022/03/28 00:36:57;;;;;;;16.03;13.00;;;;;;;;;;508702;29;1360;-72
2022/03/28 00:37:12;;;;;;;15.87;12.80;;;;;;;;;;509448;29;1276;-71
2022/03/28 00:37:28;;;;;;;15.30;12.65;;;;;;;;;;507623;29;1297;-71
2022/03/28 00:37:43;;;;;;;14.63;12.80;;;;;;;;;;507806;29;1340;-72
2022/03/28 00:37:59;;;;;;;14.55;12.88;;;;;;;;;;509687;29;1260;-72
2022/03/28 00:38:14;;;;;;;14.93;13.00;;;;;;;;;;509896;29;1271;-71
2022/03/28 00:38:29;;;;;;;16.05;12.85;;;;;;;;;;510088;28;1271;-71
2022/03/28 00:38:45;;;;;;;15.30;12.77;;;;;;;;;;512080;28;1421;-71
2022/03/28 00:39:00;;;;;;;14.57;12.80;;;;;;;;;;512164;28;2312;-71
2022/03/28 00:39:20;;;;;;;14.95;12.88;;;;;;;;;;512149;28;1435;-72
2022/03/28 00:39:35;;;;;;;14.93;13.00;;;;;;;;;;513682;28;1539;-71
2022/03/28 00:39:50;;;;;;;14.50;12.97;;;;;;;;;;513412;28;1288;-72
2022/03/28 00:40:06;;;;;;;14.80;12.87;;;;;;;;;;513363;28;1634;-72
2022/03/28 00:40:23;;;;;;;15.13;13.05;;;;;;;;;;512770;28;1348;-71
2022/03/28 00:40:39;;;;;;;14.80;13.20;;;;;;;;;;513563;28;1348;-71
2022/03/28 00:40:55;;;;;;;14.38;12.82;;;;;;;;;;511581;29;1367;-71
2022/03/28 00:41:10;;;;;;;14.27;12.70;;;;;;;;;;511789;29;1352;-71
2022/03/28 00:41:26;;;;;;;14.90;13.00;;;;;;;;;;511603;29;1161;-71
2022/03/28 00:41:41;;;;;;;14.95;13.07;;;;;;;;;;511621;29;754;-71
2022/03/28 00:41:56;;;;;;;15.03;12.93;;;;;;;;;;512430;28;904;-72
2022/03/28 00:42:12;;;;;;;15.77;12.93;;;;;;;;;;513888;28;1056;-71
2022/03/28 00:42:28;;;;;;;15.15;13.07;;;;;;;;;;513714;28;1026;-71
2022/03/28 00:42:45;;;;;;;14.85;13.05;;;;;;;;;;513250;28;1443;-72
2022/03/28 00:43:03;;;;;;;14.57;12.70;;;;;;;;;;515767;28;1213;-71
2022/03/28 00:43:18;;;;;;;15.25;13.10;;;;;;;;;;514467;28;1443;-72
2022/03/28 00:43:34;;;;;;;15.17;12.97;;;;;;;;;;513712;28;1158;-71
2022/03/28 00:43:57;;;;;;;14.77;12.90;;;;;;;;;;513967;28;837;-71
2022/03/28 00:44:12;;;;;;;14.73;13.13;;;;;;;;;;513703;28;1330;-71
2022/03/28 00:44:30;;;;;;;14.77;13.17;;;;;;;;;;511936;28;1322;-72
2022/03/28 00:44:46;;;;;;;14.85;13.20;;;;;;;;;;511481;28;1444;-71
2022/03/28 00:45:01;;;;;;;14.63;13.00;;;;;;;;;;511365;28;1346;-72
2022/03/28 00:45:18;;;;;;;14.53;13.03;;;;;;;;;;512494;28;1398;-71
2022/03/28 00:45:35;;;;;;;14.40;12.90;;;;;;;;;;515245;28;1453;-71
2022/03/28 00:45:50;;;;;;;15.68;13.05;;;;;;;;;;514604;28;1336;-72
2022/03/28 00:46:05;;;;;;;14.67;12.77;;;;;;;;;;512390;28;1335;-72
2022/03/28 00:46:21;;;;;;;14.00;12.53;;;;;;;;;;513233;28;1262;-72
2022/03/28 00:46:36;;;;;;;14.70;12.77;;;;;;;;;;512964;28;1429;-71
2022/03/28 00:46:51;;;;;;;14.90;12.80;;;;;;;;;;512430;28;1270;-71
2022/03/28 00:47:07;;;;;;;15.87;13.10;;;;;;;;;;512691;28;1606;-72
2022/03/28 00:47:22;;;;;;;15.88;13.25;;;;;;;;;;510309;29;1279;-71
2022/03/28 00:47:37;;;;;;;16.37;13.33;;;;;;;;;;509910;28;1378;-72
2022/03/28 00:47:53;;;;;;;16.77;13.53;;;;;;;;;;511498;28;1278;-71
2022/03/28 00:48:10;;;;;;;15.88;13.45;;;;;;;;;;513942;28;1550;-72
2022/03/28 00:48:26;;;;;;;16.33;13.55;;;;;;;;;;512219;28;1567;-71
2022/03/28 00:48:42;;;;;;;16.15;13.38;;;;;;;;;;512328;28;1267;-71
2022/03/28 00:48:57;;;;;;;15.15;13.23;;;;;;;;;;510968;29;1260;-71
2022/03/28 00:49:13;;;;;;;15.25;13.52;;;;;;;;;;512181;28;722;-71
2022/03/28 00:49:28;;;;;;;15.60;13.60;;;;;;;;;;511983;28;1449;-71
2022/03/28 00:49:44;;;;;;;15.32;13.45;;;;;;;;;;512728;28;1512;-71
2022/03/28 00:49:59;;;;;;;15.23;13.27;;;;;;;;;;512317;28;1698;-71
2022/03/28 00:50:14;;;;;;;15.83;13.33;;;;;;;;;;512578;28;1185;-71
2022/03/28 00:50:30;;;;;;;15.73;13.33;;;;;;;;;;514095;28;1202;-71
2022/03/28 00:50:45;;;;;;;14.95;13.27;;;;;;;;;;514112;28;1629;-71
2022/03/28 00:51:01;;;;;;;16.30;13.52;;;;;;;;;;515593;28;1336;-72
2022/03/28 00:51:18;;;;;;;17.00;13.50;;;;;;;;;;514400;28;1597;-71
2022/03/28 00:51:34;;;;;;;16.00;13.35;;;;;;;;;;514696;28;1270;-71
2022/03/28 00:51:49;;;;;;;16.02;13.57;;;;;;;;;;512815;28;1412;-71
2022/03/28 00:52:06;;;;;;;15.73;13.35;;;;;;;;;;512515;28;1442;-71
2022/03/28 00:52:22;;;;;;;16.23;13.60;;;;;;;;;;512912;28;1374;-72
2022/03/28 00:52:38;;;;;;;16.10;13.70;;;;;;;;;;512305;28;1555;-72
2022/03/28 00:52:55;;;;;;;15.88;13.52;;;;;;;;;;512673;28;1465;-72
2022/03/28 00:53:13;;;;;;;15.50;13.38;;;;;;;;;;513122;28;1317;-71
2022/03/28 00:53:28;;;;;;;15.35;13.73;;;;;;;;;;514674;28;1443;-71
2022/03/28 00:53:44;;;;;;;16.70;14.20;;;;;;;;;;514696;28;1428;-71
2022/03/28 00:54:00;;;;;;;17.30;13.60;;;;;;;;;;514557;28;1349;-71
2022/03/28 00:54:15;;;;;;;16.20;13.37;;;;;;;;;;514498;28;1515;-71
2022/03/28 00:54:31;;;;;;;15.35;13.68;;;;;;;;;;514782;28;1325;-71
2022/03/28 00:54:46;;;;;;;15.17;13.40;;;;;;;;;;511874;28;1476;-72
2022/03/28 00:55:03;;;;;;;15.50;13.00;;;;;;;;;;512663;28;1267;-71
2022/03/28 00:55:18;;;;;;;15.23;12.88;;;;;;;;;;512039;28;1205;-72
2022/03/28 00:55:33;;;;;;;15.83;13.30;;;;;;;;;;512005;28;1416;-71
2022/03/28 00:55:49;;;;;;;15.85;13.35;;;;;;;;;;512754;28;1313;-72
2022/03/28 00:56:05;;;;;;;15.40;13.50;;;;;;;;;;511579;28;1333;-72
2022/03/28 00:56:21;;;;;;;17.50;14.20;;;;;;;;;;511696;28;1358;-72
2022/03/28 00:56:37;;;;;;;17.48;14.20;;;;;;;;;;511558;28;1434;-71
2022/03/28 00:56:52;;;;;;;16.27;13.98;;;;;;;;;;513516;28;1373;-71
2022/03/28 00:57:08;;;;;;;16.27;14.00;;;;;;;;;;513032;28;1535;-71
2022/03/28 00:57:23;;;;;;;16.03;13.77;;;;;;;;;;513052;28;1151;-72
2022/03/28 00:57:39;;;;;;;16.73;14.13;;;;;;;;;;513335;28;1417;-72
2022/03/28 00:57:55;;;;;;;16.00;13.95;;;;;;;;;;513936;28;1437;-72
2022/03/28 00:58:10;;;;;;;15.23;13.63;;;;;;;;;;513863;28;1269;-72
2022/03/28 00:58:25;;;;;;;16.00;13.87;;;;;;;;;;512457;28;1161;-72
2022/03/28 00:58:41;;;;;;;16.63;14.00;;;;;;;;;;513548;28;1116;-72
2022/03/28 00:58:58;;;;;;;16.20;14.00;;;;;;;;;;513640;28;1967;-71
2022/03/28 00:59:14;;;;;;;15.82;13.90;;;;;;;;;;512868;28;793;-71
2022/03/28 00:59:32;;;;;;;15.73;13.88;;;;;;;;;;511420;28;1546;-71
2022/03/28 00:59:47;;;;;;;15.50;13.85;;;;;;;;;;512271;28;1413;-72
2022/03/28 01:00:07;;;;;;;15.43;13.80;;;;;;;;;;511370;28;1212;-72
2022/03/28 01:00:22;;;;;;;15.75;13.52;;;;;;;;;;512879;28;1476;-72
2022/03/28 01:00:38;;;;;;;15.33;13.17;;;;;;;;;;514498;28;1196;-72
2022/03/28 01:00:53;;;;;;;17.13;13.20;;;;;;;;;;514059;28;1536;-71
2022/03/28 01:01:11;;;;;;;17.50;13.67;;;;;;;;;;512969;28;1526;-71
2022/03/28 01:01:26;;;;;;;16.40;13.52;;;;;;;;;;512850;28;1198;-72
2022/03/28 01:01:42;;;;;;;17.30;13.53;;;;;;;;;;512957;28;1282;-72
2022/03/28 01:01:57;;;;;;;17.38;13.98;;;;;;;;;;513879;28;1345;-71
2022/03/28 01:02:12;;;;;;;16.13;13.83;;;;;;;;;;512732;28;1346;-72
2022/03/28 01:02:27;;;;;;;15.07;13.40;;;;;;;;;;512677;28;1498;-71
2022/03/28 01:02:43;;;;;;;14.93;13.33;;;;;;;;;;512861;28;1368;-72
2022/03/28 01:02:59;;;;;;;15.13;13.52;;;;;;;;;;513502;28;807;-71
2022/03/28 01:03:15;;;;;;;17.27;13.80;;;;;;;;;;509793;28;2537;-71
2022/03/28 01:03:30;;;;;;;17.63;13.88;;;;;;;;;;512293;28;2718;-72
2022/03/28 01:03:45;;;;;;;16.88;13.76;;;;;;;;;;169904;28;10001239;-72
2022/03/28 01:04:01;;;;;;;16.27;14.03;;;;;;;;;;512808;28;1294;-71
2022/03/28 01:04:16;;;;;;;17.45;14.40;;;;;;;;;;511390;28;1459;-71
2022/03/28 01:04:31;;;;;;;17.47;14.23;;;;;;;;;;511718;28;1374;-72
2022/03/28 01:04:47;;;;;;;17.63;14.10;;;;;;;;;;511132;28;1544;-71
2022/03/28 01:05:02;;;;;;;17.00;14.05;;;;;;;;;;509555;29;1364;-72
2022/03/28 01:05:18;;;;;;;15.70;14.00;;;;;;;;;;507827;29;1398;-72
2022/03/28 01:05:33;;;;;;;16.52;14.20;;;;;;;;;;509916;29;1303;-71
2022/03/28 01:05:49;;;;;;;17.50;14.50;;;;;;;;;;507468;29;1493;-72
2022/03/28 01:06:05;;;;;;;17.33;14.32;;;;;;;;;;508179;29;1331;-71
2022/03/28 01:06:21;;;;;;;16.75;13.93;;;;;;;;;;507622;29;1269;-71
2022/03/28 01:06:37;;;;;;;16.52;13.90;;;;;;;;;;507924;29;804;-72
2022/03/28 01:06:52;;;;;;;17.20;14.27;;;;;;;;;;506208;29;916;-71
2022/03/28 01:07:08;;;;;;;16.65;14.25;;;;;;;;;;508211;29;711;-72
2022/03/28 01:07:26;;;;;;;17.15;14.60;;;;;;;;;;510283;29;727;-71
2022/03/28 01:07:42;;;;;;;17.70;14.50;;;;;;;;;;509792;29;1237;-70
2022/03/28 01:07:59;;;;;;;17.60;13.90;;;;;;;;;;511630;29;1023;-70
2022/03/28 01:08:15;;;;;;;16.85;14.07;;;;;;;;;;513059;28;840;-70
2022/03/28 01:08:32;;;;;;;16.60;14.30;;;;;;;;;;515638;28;875;-70
2022/03/28 01:08:48;;;;;;;18.13;14.40;;;;;;;;;;514207;28;1484;-70
2022/03/28 01:09:05;;;;;;;18.92;14.73;;;;;;;;;;514067;28;1416;-70
2022/03/28 01:09:20;;;;;;;19.50;14.50;;;;;;;;;;514537;28;1320;-70
2022/03/28 01:09:35;;;;;;;17.33;13.87;;;;;;;;;;514172;28;1515;-70
2022/03/28 01:09:51;;;;;;;16.65;13.82;;;;;;;;;;513438;28;1190;-70
2022/03/28 01:10:09;;;;;;;17.43;14.17;;;;;;;;;;515328;28;1190;-70
2022/03/28 01:10:24;;;;;;;16.73;13.93;;;;;;;;;;514896;28;721;-72
2022/03/28 01:10:42;;;;;;;16.30;14.07;;;;;;;;;;515541;28;741;-70
2022/03/28 01:11:00;;;;;;;17.60;13.95;;;;;;;;;;515758;28;892;-68
2022/03/28 01:11:16;;;;;;;17.95;14.27;;;;;;;;;;515720;28;690;-70
2022/03/28 01:11:33;;;;;;;18.60;14.40;;;;;;;;;;515629;28;817;-70
2022/03/28 01:11:49;;;;;;;18.35;14.40;;;;;;;;;;514774;28;1452;-70
2022/03/28 01:12:05;;;;;;;16.70;14.33;;;;;;;;;;513567;28;1385;-70
2022/03/28 01:12:22;;;;;;;16.42;14.13;;;;;;;;;;513685;28;1431;-70
2022/03/28 01:12:43;;;;;;;17.42;14.25;;;;;;;;;;514042;28;1351;-70
2022/03/28 01:13:00;;;;;;;17.35;14.13;;;;;;;;;;513714;28;1392;-70
2022/03/28 01:13:16;;;;;;;16.08;14.32;;;;;;;;;;512962;28;1396;-70
2022/03/28 01:13:33;;;;;;;17.10;14.02;;;;;;;;;;513238;28;1292;-70
2022/03/28 01:13:49;;;;;;;17.33;13.75;;;;;;;;;;512951;28;1508;-70
2022/03/28 01:14:04;;;;;;;16.97;14.17;;;;;;;;;;512949;28;1254;-70
2022/03/28 01:14:20;;;;;;;17.35;14.43;;;;;;;;;;513014;28;1370;-70
2022/03/28 01:14:36;;;;;;;17.38;14.30;;;;;;;;;;511952;28;1488;-70
2022/03/28 01:14:53;;;;;;;17.00;14.25;;;;;;;;;;512044;28;1345;-70
2022/03/28 01:15:13;;;;;;;17.27;14.73;;;;;;;;;;513281;28;1437;-70
2022/03/28 01:15:29;;;;;;;19.65;15.35;;;;;;;;;;513812;28;1376;-71
2022/03/28 01:15:44;;;;;;;19.17;15.00;;;;;;;;;;511883;28;1465;-70
2022/03/28 01:16:00;;;;;;;16.92;14.52;;;;;;;;;;512127;28;1270;-70
2022/03/28 01:16:16;;;;;;;17.65;14.68;;;;;;;;;;511888;28;1441;-70
2022/03/28 01:18:19;;;;;;;18.55;15.30;;;;;;;;;;513655;28;1200;-70
2022/03/28 01:18:35;;;;;;;17.58;15.18;;;;;;;;;;514379;28;1273;-70
2022/03/28 01:18:50;;;;;;;18.60;15.32;;;;;;;;;;513767;28;1602;-70
2022/03/28 01:19:06;;;;;;;19.87;14.97;;;;;;;;;;513600;28;1976;-70
2022/03/28 01:19:23;;;;;;;19.33;14.80;;;;;;;;;;514473;28;1285;-70
2022/03/28 01:19:38;;;;;;;18.58;14.98;;;;;;;;;;514319;28;1504;-70
2022/03/28 01:19:54;;;;;;;18.83;15.07;;;;;;;;;;514312;28;1198;-70
2022/03/28 01:20:10;;;;;;;19.05;15.45;;;;;;;;;;513935;28;1650;-70
2022/03/28 01:20:26;;;;;;;17.90;15.38;;;;;;;;;;514936;28;1030;-70
2022/03/28 01:20:41;;;;;;;18.90;15.47;;;;;;;;;;517613;28;998;-70
2022/03/28 01:21:01;;;;;;;19.33;15.70;;;;;;;;;;517673;28;756;-70
2022/03/28 01:21:17;;;;;;;17.75;15.32;;;;;;;;;;517595;28;804;-70
2022/03/28 01:21:33;;;;;;;17.67;15.10;;;;;;;;;;517507;28;875;-70
2022/03/28 01:21:48;;;;;;;20.23;15.55;;;;;;;;;;517551;28;850;-70
2022/03/28 01:22:03;;;;;;;19.30;15.30;;;;;;;;;;517631;28;993;-71
2022/03/28 01:22:19;;;;;;;19.87;15.13;;;;;;;;;;514185;28;1337;-70
2022/03/28 01:22:34;;;;;;;19.73;15.10;;;;;;;;;;514734;28;1325;-70
2022/03/28 01:22:49;;;;;;;17.57;15.03;;;;;;;;;;513970;28;1511;-70
2022/03/28 01:23:06;;;;;;;18.50;15.10;;;;;;;;;;514142;28;1258;-70
2022/03/28 01:23:22;;;;;;;19.23;15.23;;;;;;;;;;514720;28;1462;-70
2022/03/28 01:23:39;;;;;;;18.65;15.38;;;;;;;;;;514531;28;1436;-70
2022/03/28 01:23:54;;;;;;;18.20;15.43;;;;;;;;;;515011;28;1318;-70
2022/03/28 01:24:11;;;;;;;18.47;15.27;;;;;;;;;;512508;28;1322;-70
2022/03/28 01:24:27;;;;;;;18.60;14.88;;;;;;;;;;511855;28;1366;-70
2022/03/28 01:24:44;;;;;;;18.03;15.13;;;;;;;;;;510550;29;1346;-70
2022/03/28 01:25:02;;;;;;;17.38;15.32;;;;;;;;;;510205;29;1378;-70
2022/03/28 01:25:22;;;;;;;17.35;15.20;;;;;;;;;;511298;28;1298;-70
2022/03/28 01:25:37;;;;;;;17.15;15.13;;;;;;;;;;512698;28;1298;-71
2022/03/28 01:25:54;;;;;;;18.43;14.80;;;;;;;;;;512349;28;1468;-71
2022/03/28 01:26:09;;;;;;;19.10;14.68;;;;;;;;;;514749;28;1309;-70
2022/03/28 01:26:25;;;;;;;17.85;14.85;;;;;;;;;;514358;28;1436;-71
2022/03/28 01:26:40;;;;;;;17.73;15.10;;;;;;;;;;514524;28;1289;-71
2022/03/28 01:26:57;;;;;;;17.85;15.15;;;;;;;;;;514973;28;1420;-71
2022/03/28 01:27:14;;;;;;;17.85;14.70;;;;;;;;;;512472;28;1380;-71
2022/03/28 01:27:29;;;;;;;18.55;14.90;;;;;;;;;;512911;28;1310;-71
2022/03/28 01:27:44;;;;;;;17.73;15.00;;;;;;;;;;510702;29;1496;-70
2022/03/28 01:28:01;;;;;;;18.63;14.80;;;;;;;;;;510998;29;1342;-71
2022/03/28 01:28:17;;;;;;;19.45;14.77;;;;;;;;;;510826;29;1362;-71
2022/03/28 01:28:32;;;;;;;18.67;14.93;;;;;;;;;;510889;28;1461;-71
2022/03/28 01:28:47;;;;;;;18.02;15.02;;;;;;;;;;512002;28;1342;-71
2022/03/28 01:29:03;;;;;;;17.87;14.93;;;;;;;;;;512230;28;1630;-71
2022/03/28 01:29:19;;;;;;;19.35;15.23;;;;;;;;;;513794;28;1265;-70
2022/03/28 01:29:34;;;;;;;18.58;14.88;;;;;;;;;;514148;28;1448;-71
2022/03/28 01:29:50;;;;;;;18.20;15.00;;;;;;;;;;513986;28;1344;-71
2022/03/28 01:30:07;;;;;;;19.27;15.80;;;;;;;;;;513197;28;1452;-70
2022/03/28 01:30:23;;;;;;;18.63;15.60;;;;;;;;;;511721;28;1278;-71
2022/03/28 01:30:38;;;;;;;19.52;15.55;;;;;;;;;;512456;28;1322;-71
2022/03/28 01:30:54;;;;;;;19.73;15.37;;;;;;;;;;512609;28;1515;-70
2022/03/28 01:31:10;;;;;;;18.60;15.07;;;;;;;;;;513200;28;1314;-71
2022/03/28 01:31:25;;;;;;;17.93;15.13;;;;;;;;;;513983;28;745;-70
2022/03/28 01:31:41;;;;;;;17.37;14.67;;;;;;;;;;512454;28;1280;-71
2022/03/28 01:31:56;;;;;;;17.45;14.73;;;;;;;;;;512826;28;1365;-70
2022/03/28 01:32:11;;;;;;;17.87;15.30;;;;;;;;;;513166;28;1203;-70
2022/03/28 01:32:26;;;;;;;17.45;15.15;;;;;;;;;;512440;28;1431;-70
2022/03/28 01:32:42;;;;;;;17.40;14.97;;;;;;;;;;512267;28;1401;-71
2022/03/28 01:32:58;;;;;;;18.30;15.03;;;;;;;;;;511234;29;1426;-70
2022/03/28 01:33:14;;;;;;;18.52;15.15;;;;;;;;;;511646;29;1027;-70
2022/03/28 01:33:29;;;;;;;17.47;14.93;;;;;;;;;;510080;29;1166;-71
2022/03/28 01:33:44;;;;;;;18.17;14.85;;;;;;;;;;511659;29;777;-70
2022/03/28 01:34:01;;;;;;;19.10;14.83;;;;;;;;;;509646;29;1298;-71
2022/03/28 01:34:21;;;;;;;18.98;14.98;;;;;;;;;;509825;29;793;-71
2022/03/28 01:34:36;;;;;;;18.40;14.68;;;;;;;;;;511366;29;1237;-71
2022/03/28 01:34:51;;;;;;;17.42;15.05;;;;;;;;;;510758;28;1432;-71
2022/03/28 01:35:07;;;;;;;17.03;14.97;;;;;;;;;;510934;28;1239;-71
2022/03/28 01:35:36;;;;;;;17.23;14.60;;;;;;;;;;511191;28;1285;-70
2022/03/28 01:35:52;;;;;;;18.15;15.15;;;;;;;;;;512555;28;1246;-70
2022/03/28 01:36:08;;;;;;;19.45;15.13;;;;;;;;;;512897;28;1492;-70
2022/03/28 01:36:29;;;;;;;20.20;15.20;;;;;;;;;;513064;28;1385;-71
2022/03/28 01:36:47;;;;;;;18.13;15.20;;;;;;;;;;514767;28;1488;-70
2022/03/28 01:37:03;;;;;;;19.05;15.10;;;;;;;;;;514134;28;1522;-70
2022/03/28 01:37:18;;;;;;;20.25;15.70;;;;;;;;;;514269;28;1406;-70
2022/03/28 01:37:34;;;;;;;18.57;15.10;;;;;;;;;;513858;28;1511;-70